createdAt,value
2022-12-20T00:01:52.307Z,0.17
2022-12-20T00:04:20.048Z,0.07
2022-12-20T00:06:47.699Z,0.21
2022-12-20T00:09:15.349Z,0.18
2022-12-20T00:11:44.448Z,0.22
2022-12-20T00:14:12.126Z,0.26
2022-12-20T00:16:40.029Z,0.29
2022-12-20T00:19:08.366Z,0.28
2022-12-20T00:21:36.755Z,0.20
2022-12-20T00:24:05.031Z,0.22
2022-12-20T00:26:34.192Z,0.10
2022-12-20T00:29:03.151Z,0.10
2022-12-20T00:31:31.970Z,0.09
2022-12-20T00:34:01.110Z,0.11
2022-12-20T00:36:30.351Z,0.10
2022-12-20T00:39:00.226Z,0.23
2022-12-20T00:41:29.071Z,0.20
2022-12-20T00:43:56.893Z,0.09
2022-12-20T00:46:26.635Z,0.20
2022-12-20T00:48:55.195Z,-0.05
2022-12-20T00:51:25.954Z,0.20
2022-12-20T00:53:53.824Z,0.19
2022-12-20T00:56:21.529Z,0.18
2022-12-20T00:58:49.405Z,0.12
2022-12-20T01:01:20.792Z,0.15
2022-12-20T01:03:50.327Z,0.16
2022-12-20T01:06:18.986Z,0.18
2022-12-20T01:08:46.609Z,-0.06
2022-12-20T01:11:16.520Z,0.14
2022-12-20T01:13:45.884Z,0.18
2022-12-20T01:16:15.977Z,0.32
2022-12-20T01:18:43.656Z,0.30
2022-12-20T01:21:15.032Z,0.29
2022-12-20T01:23:43.058Z,0.28
2022-12-20T01:26:14.028Z,0.34
2022-12-20T01:28:43.371Z,0.24
2022-12-20T01:31:11.606Z,0.38
2022-12-20T01:33:38.456Z,0.40
2022-12-20T01:36:06.481Z,0.45
2022-12-20T01:38:36.669Z,0.31
2022-12-20T01:41:05.214Z,0.42
2022-12-20T01:43:48.807Z,0.15
2022-12-20T01:46:16.810Z,0.21
2022-12-20T01:48:47.017Z,0.33
2022-12-20T01:51:16.514Z,0.47
2022-12-20T01:53:45.680Z,0.10
2022-12-20T01:56:13.378Z,0.25
2022-12-20T01:58:41.568Z,0.36
2022-12-20T02:01:09.389Z,0.09
2022-12-20T02:03:37.632Z,-0.06
2022-12-20T02:06:17.218Z,0.39
2022-12-20T02:08:47.956Z,0.20
2022-12-20T02:11:26.277Z,0.43
2022-12-20T02:14:03.219Z,0.31
2022-12-20T02:16:35.221Z,0.45
2022-12-20T02:19:14.154Z,0.40
2022-12-20T02:21:44.504Z,0.42
2022-12-20T02:24:42.633Z,0.44
2022-12-20T02:27:46.897Z,0.50
2022-12-20T02:30:22.826Z,0.44
2022-12-20T02:32:55.597Z,0.47
2022-12-20T02:35:26.154Z,0.51
2022-12-20T02:37:55.642Z,0.60
2022-12-20T02:40:25.788Z,0.55
2022-12-20T02:42:56.115Z,0.50
2022-12-20T02:45:30.092Z,0.58
2022-12-20T02:48:00.912Z,0.55
2022-12-20T02:50:32.956Z,0.56
2022-12-20T02:53:00.810Z,0.51
2022-12-20T02:55:35.186Z,0.53
2022-12-20T02:58:06.607Z,0.58
2022-12-20T03:00:39.549Z,0.53
2022-12-20T03:03:25.797Z,0.52
2022-12-20T03:05:56.011Z,0.55
2022-12-20T03:08:24.591Z,0.56
2022-12-20T03:10:53.422Z,0.45
2022-12-20T03:13:21.445Z,0.50
2022-12-20T03:15:50.354Z,0.62
2022-12-20T03:18:17.975Z,0.53
2022-12-20T03:20:45.721Z,0.53
2022-12-20T03:23:13.422Z,0.49
2022-12-20T03:25:41.100Z,0.51
2022-12-20T03:28:08.693Z,0.44
2022-12-20T03:30:36.400Z,0.51
2022-12-20T03:33:05.522Z,0.53
2022-12-20T03:35:33.156Z,0.38
2022-12-20T03:38:00.922Z,0.44
2022-12-20T03:40:28.519Z,0.47
2022-12-20T03:42:56.173Z,0.29
2022-12-20T03:45:23.772Z,0.39
2022-12-20T03:47:51.331Z,0.51
2022-12-20T03:50:20.387Z,0.42
2022-12-20T03:52:47.942Z,0.55
2022-12-20T03:55:15.579Z,0.66
2022-12-20T03:57:43.165Z,0.60
2022-12-20T04:00:12.651Z,0.50
2022-12-20T04:02:40.440Z,0.54
2022-12-20T04:05:09.101Z,0.51
2022-12-20T04:07:38.150Z,0.52
2022-12-20T04:10:07.137Z,0.55
2022-12-20T04:12:34.783Z,0.46
2022-12-20T04:15:02.483Z,0.42
2022-12-20T04:17:32.074Z,0.51
2022-12-20T04:20:18.696Z,0.57
2022-12-20T04:22:47.884Z,0.55
2022-12-20T04:25:16.571Z,0.49
2022-12-20T04:27:44.235Z,0.55
2022-12-20T04:30:12.922Z,0.53
2022-12-20T04:32:40.627Z,0.55
2022-12-20T04:35:08.898Z,0.49
2022-12-20T04:37:36.506Z,0.55
2022-12-20T04:40:06.628Z,0.47
2022-12-20T04:42:34.291Z,0.56
2022-12-20T04:45:01.902Z,0.57
2022-12-20T04:47:29.545Z,0.55
2022-12-20T04:49:57.142Z,0.58
2022-12-20T04:52:47.724Z,0.60
2022-12-20T04:55:17.577Z,0.64
2022-12-20T04:57:45.678Z,0.60
2022-12-20T05:00:15.276Z,0.62
2022-12-20T05:02:43.446Z,0.50
2022-12-20T05:05:11.198Z,0.64
2022-12-20T05:07:38.816Z,0.58
2022-12-20T05:10:07.363Z,0.55
2022-12-20T05:12:36.266Z,0.59
2022-12-20T05:15:04.491Z,0.60
2022-12-20T05:17:32.036Z,0.56
2022-12-20T05:20:00.091Z,0.59
2022-12-20T05:22:45.291Z,0.55
2022-12-20T05:25:31.239Z,0.61
2022-12-20T05:28:00.306Z,0.69
2022-12-20T05:30:28.298Z,0.65
2022-12-20T05:32:56.456Z,0.65
2022-12-20T05:35:24.063Z,0.69
2022-12-20T05:37:51.877Z,0.74
2022-12-20T05:40:19.519Z,0.69
2022-12-20T05:42:47.112Z,0.71
2022-12-20T05:45:16.222Z,0.70
2022-12-20T05:47:43.784Z,0.66
2022-12-20T05:50:18.335Z,0.63
2022-12-20T05:52:46.710Z,0.57
2022-12-20T05:55:14.328Z,0.64
2022-12-20T05:57:41.891Z,0.86
2022-12-20T06:00:10.828Z,0.75
2022-12-20T06:02:40.183Z,0.74
2022-12-20T06:05:08.433Z,0.78
2022-12-20T06:07:36.063Z,0.80
2022-12-20T06:10:03.636Z,0.85
2022-12-20T06:12:31.271Z,0.85
2022-12-20T06:14:58.844Z,0.91
2022-12-20T06:17:26.425Z,0.98
2022-12-20T06:19:55.402Z,1.04
2022-12-20T06:22:23.004Z,0.93
2022-12-20T06:24:50.630Z,0.94
2022-12-20T06:27:18.637Z,0.86
2022-12-20T06:29:51.898Z,0.89
2022-12-20T06:32:19.610Z,0.93
2022-12-20T06:34:47.261Z,1.03
2022-12-20T06:37:16.192Z,1.08
2022-12-20T06:39:43.836Z,1.12
2022-12-20T06:42:11.454Z,1.16
2022-12-20T06:44:39.113Z,1.06
2022-12-20T06:47:06.740Z,1.10
2022-12-20T06:49:34.383Z,1.13
2022-12-20T06:52:02.082Z,1.10
2022-12-20T06:54:31.065Z,1.18
2022-12-20T06:56:58.702Z,1.20
2022-12-20T06:59:26.604Z,1.18
2022-12-20T07:01:54.484Z,1.17
2022-12-20T07:04:22.303Z,1.11
2022-12-20T07:06:50.066Z,1.17
2022-12-20T07:09:17.756Z,1.03
2022-12-20T07:11:46.675Z,1.14
2022-12-20T07:14:14.320Z,1.05
2022-12-20T07:16:46.202Z,1.00
2022-12-20T07:19:14.280Z,0.96
2022-12-20T07:21:42.082Z,0.63
2022-12-20T07:24:10.087Z,0.90
2022-12-20T07:26:37.742Z,0.93
2022-12-20T07:29:10.556Z,0.95
2022-12-20T07:31:42.791Z,0.90
2022-12-20T07:34:11.775Z,0.92
2022-12-20T07:36:39.698Z,0.95
2022-12-20T07:39:07.380Z,0.95
2022-12-20T07:41:35.046Z,0.98
2022-12-20T07:44:03.110Z,1.03
2022-12-20T07:46:32.133Z,1.05
2022-12-20T07:48:59.865Z,1.14
2022-12-20T07:51:29.694Z,1.21
2022-12-20T07:54:00.373Z,0.98
2022-12-20T07:56:28.484Z,1.01
2022-12-20T07:58:58.448Z,1.02
2022-12-20T08:01:27.340Z,1.12
2022-12-20T08:04:01.763Z,1.16
2022-12-20T08:06:29.816Z,1.19
2022-12-20T08:09:00.117Z,1.17
2022-12-20T08:11:29.112Z,1.17
2022-12-20T08:13:58.280Z,1.21
2022-12-20T08:16:26.709Z,1.21
2022-12-20T08:18:55.990Z,1.16
2022-12-20T08:21:23.689Z,1.35
2022-12-20T08:23:51.813Z,1.26
2022-12-20T08:26:19.447Z,1.16
2022-12-20T08:28:47.086Z,1.19
2022-12-20T08:31:14.876Z,1.20
2022-12-20T08:33:42.674Z,1.27
2022-12-20T08:36:14.574Z,1.31
2022-12-20T08:38:42.469Z,1.33
2022-12-20T08:41:11.714Z,1.36
2022-12-20T08:43:39.896Z,1.39
2022-12-20T08:46:08.135Z,1.18
2022-12-20T08:48:35.947Z,1.55
2022-12-20T08:51:05.525Z,1.58
2022-12-20T08:53:35.584Z,1.52
2022-12-20T08:56:07.506Z,1.56
2022-12-20T08:58:35.584Z,1.58
2022-12-20T09:01:06.823Z,1.60
2022-12-20T09:03:35.296Z,1.62
2022-12-20T09:06:06.654Z,1.67
2022-12-20T09:08:36.009Z,1.76
2022-12-20T09:11:07.416Z,1.76
2022-12-20T09:13:41.437Z,1.75
2022-12-20T09:16:11.981Z,1.82
2022-12-20T09:18:39.637Z,1.88
2022-12-20T09:21:08.029Z,1.80
2022-12-20T09:23:37.898Z,1.86
2022-12-20T09:26:06.917Z,1.93
2022-12-20T09:28:35.170Z,1.91
2022-12-20T09:31:03.637Z,2.01
2022-12-20T09:33:32.170Z,2.00
2022-12-20T09:36:00.342Z,2.06
2022-12-20T09:38:28.953Z,2.06
2022-12-20T09:41:00.106Z,2.08
2022-12-20T09:43:28.323Z,2.13
2022-12-20T09:45:57.115Z,2.13
2022-12-20T09:48:26.886Z,2.13
2022-12-20T09:51:04.687Z,2.16
2022-12-20T09:53:38.457Z,2.25
2022-12-20T09:56:12.023Z,2.23
2022-12-20T09:58:58.081Z,2.28
2022-12-20T10:01:32.631Z,2.28
2022-12-20T10:04:07.024Z,2.32
2022-12-20T10:06:43.655Z,2.35
2022-12-20T10:09:15.165Z,2.40
2022-12-20T10:11:54.437Z,2.42
2022-12-20T10:14:35.584Z,2.44
2022-12-20T10:17:06.202Z,2.45
2022-12-20T10:19:56.909Z,2.43
2022-12-20T10:22:27.462Z,2.47
2022-12-20T10:25:00.395Z,2.47
2022-12-20T10:27:29.373Z,2.54
2022-12-20T10:29:56.950Z,2.59
2022-12-20T10:32:26.036Z,2.65
2022-12-20T10:34:58.488Z,2.68
2022-12-20T10:37:26.121Z,2.73
2022-12-20T10:39:53.848Z,2.68
2022-12-20T10:42:27.003Z,2.62
2022-12-20T10:44:56.670Z,2.54
2022-12-20T10:47:40.110Z,2.55
2022-12-20T10:50:15.616Z,2.57
2022-12-20T10:52:43.317Z,2.61
2022-12-20T10:55:34.286Z,2.64
2022-12-20T10:58:04.432Z,2.69
2022-12-20T11:00:33.839Z,2.81
2022-12-20T11:03:13.747Z,2.87
2022-12-20T11:05:41.588Z,2.94
2022-12-20T11:11:16.986Z,3.06
2022-12-20T11:13:45.584Z,3.08
2022-12-20T11:16:36.420Z,3.16
2022-12-20T11:19:17.344Z,3.19
2022-12-20T11:21:49.234Z,3.15
2022-12-20T11:24:23.756Z,3.25
2022-12-20T11:27:01.808Z,3.17
2022-12-20T11:30:00.899Z,3.16
2022-12-20T11:32:43.062Z,3.18
2022-12-20T11:35:16.037Z,3.21
2022-12-20T11:37:49.133Z,3.24
2022-12-20T11:40:26.815Z,3.27
2022-12-20T11:43:16.078Z,3.34
2022-12-20T11:45:56.658Z,3.45
2022-12-20T11:48:38.317Z,3.46
2022-12-20T11:51:15.209Z,3.51
2022-12-20T11:53:49.003Z,3.35
2022-12-20T11:56:18.550Z,3.53
2022-12-20T11:58:51.771Z,3.41
2022-12-20T12:01:21.954Z,3.36
2022-12-20T12:04:01.744Z,3.39
2022-12-20T12:06:32.715Z,3.44
2022-12-20T12:09:07.987Z,3.44
2022-12-20T12:14:32.725Z,3.34
2022-12-20T12:17:07.709Z,3.33
2022-12-20T12:19:37.973Z,3.34
2022-12-20T12:22:08.735Z,3.41
2022-12-20T12:24:40.360Z,3.35
2022-12-20T12:27:16.040Z,3.55
2022-12-20T12:29:44.060Z,3.48
2022-12-20T12:32:18.374Z,3.36
2022-12-20T12:35:00.499Z,3.47
2022-12-20T12:37:40.314Z,3.58
2022-12-20T12:40:24.997Z,3.64
2022-12-20T12:43:41.104Z,3.85
2022-12-20T12:46:16.345Z,3.94
2022-12-20T12:48:47.470Z,4.00
2022-12-20T12:51:17.346Z,4.29
2022-12-20T12:53:49.688Z,4.36
2022-12-20T12:56:44.579Z,4.28
2022-12-20T12:59:51.806Z,4.62
2022-12-20T13:02:50.104Z,4.65
2022-12-20T13:05:36.575Z,4.69
2022-12-20T13:08:17.015Z,4.76
2022-12-20T13:11:02.809Z,4.92
2022-12-20T13:13:30.475Z,4.99
2022-12-20T13:16:48.753Z,4.89
2022-12-20T13:19:17.972Z,4.91
2022-12-20T13:21:46.679Z,4.90
2022-12-20T13:24:42.401Z,4.89
2022-12-20T13:27:30.412Z,4.90
2022-12-20T13:30:18.768Z,4.96
2022-12-20T13:33:25.802Z,4.97
2022-12-20T13:36:01.903Z,5.14
2022-12-20T13:38:51.672Z,5.11
2022-12-20T13:41:40.230Z,4.99
2022-12-20T13:44:22.628Z,4.98
2022-12-20T13:46:53.402Z,5.09
2022-12-20T13:49:25.710Z,4.94
2022-12-20T13:52:13.071Z,5.00
2022-12-20T13:54:42.181Z,4.78
2022-12-20T13:57:16.663Z,4.75
2022-12-20T13:59:47.326Z,4.57
2022-12-20T14:02:21.484Z,4.38
2022-12-20T14:04:57.144Z,4.28
2022-12-20T14:07:24.761Z,4.23
2022-12-20T14:09:58.042Z,4.23
2022-12-20T14:12:34.428Z,4.21
2022-12-20T14:15:20.245Z,4.12
2022-12-20T14:17:47.971Z,4.18
2022-12-20T14:20:17.123Z,4.19
2022-12-20T14:22:52.260Z,4.21
2022-12-20T14:25:27.893Z,4.19
2022-12-20T14:27:57.246Z,4.26
2022-12-20T14:30:30.184Z,4.24
2022-12-20T14:32:58.008Z,4.34
2022-12-20T14:35:26.095Z,4.23
2022-12-20T14:37:55.624Z,4.26
2022-12-20T14:40:23.790Z,4.37
2022-12-20T14:42:51.638Z,4.22
2022-12-20T14:45:26.675Z,4.20
2022-12-20T14:48:03.143Z,4.20
2022-12-20T14:50:32.750Z,4.17
2022-12-20T14:53:01.052Z,4.20
2022-12-20T14:55:34.205Z,4.24
2022-12-20T14:58:01.839Z,4.24
2022-12-20T15:00:32.050Z,4.25
2022-12-20T15:03:03.420Z,4.19
2022-12-20T15:05:57.193Z,4.16
2022-12-20T15:08:28.177Z,4.13
2022-12-20T15:11:03.481Z,4.12
2022-12-20T15:13:33.038Z,4.25
2022-12-20T15:16:04.461Z,4.35
2022-12-20T15:18:32.494Z,4.18
2022-12-20T15:21:06.228Z,4.11
2022-12-20T15:23:34.344Z,4.07
2022-12-20T15:26:02.810Z,4.18
2022-12-20T15:28:30.562Z,4.11
2022-12-20T15:30:58.527Z,4.03
2022-12-20T15:33:28.990Z,4.05
2022-12-20T15:35:57.463Z,4.05
2022-12-20T15:38:54.656Z,4.08
2022-12-20T15:41:20.241Z,4.03
2022-12-20T15:43:48.589Z,3.93
2022-12-20T15:46:16.282Z,3.93
2022-12-20T15:48:45.325Z,3.91
2022-12-20T15:51:16.818Z,3.91
2022-12-20T15:53:44.789Z,3.95
2022-12-20T15:56:19.063Z,3.94
2022-12-20T15:58:47.386Z,3.95
2022-12-20T16:01:18.786Z,3.93
2022-12-20T16:03:47.953Z,3.93
2022-12-20T16:06:15.633Z,3.95
2022-12-20T16:08:43.284Z,3.91
2022-12-20T16:11:20.399Z,3.92
2022-12-20T16:13:48.262Z,3.93
2022-12-20T16:16:18.334Z,3.85
2022-12-20T16:18:47.542Z,3.79
2022-12-20T16:21:18.581Z,3.81
2022-12-20T16:23:46.129Z,3.84
2022-12-20T16:26:14.645Z,3.85
2022-12-20T16:28:42.235Z,3.87
2022-12-20T16:31:12.509Z,3.86
2022-12-20T16:33:40.117Z,3.93
2022-12-20T16:36:11.042Z,3.84
2022-12-20T16:38:38.617Z,3.83
2022-12-20T16:41:13.801Z,3.94
2022-12-20T16:43:41.541Z,3.94
2022-12-20T16:46:12.338Z,4.04
2022-12-20T16:48:40.183Z,4.00
2022-12-20T16:51:25.831Z,3.90
2022-12-20T16:54:18.203Z,3.77
2022-12-20T16:56:41.755Z,3.75
2022-12-20T16:59:25.130Z,3.72
2022-12-20T17:01:54.550Z,3.70
2022-12-20T17:04:23.039Z,3.65
2022-12-20T17:06:51.920Z,3.72
2022-12-20T17:09:20.148Z,3.68
2022-12-20T17:11:49.987Z,3.71
2022-12-20T17:14:18.335Z,3.81
2022-12-20T17:16:45.963Z,3.83
2022-12-20T17:19:13.777Z,3.96
2022-12-20T17:24:31.574Z,3.79
2022-12-20T17:27:00.284Z,3.86
2022-12-20T17:29:28.043Z,3.82
2022-12-20T17:31:55.801Z,3.84
2022-12-20T17:34:26.271Z,3.88
2022-12-20T17:36:55.337Z,3.91
2022-12-20T17:39:23.208Z,3.95
2022-12-20T17:41:53.987Z,3.98
2022-12-20T17:44:23.795Z,3.96
2022-12-20T17:46:51.636Z,3.95
2022-12-20T17:49:19.630Z,3.93
2022-12-20T17:51:47.780Z,4.05
2022-12-20T17:54:18.788Z,4.05
2022-12-20T17:56:46.581Z,4.11
2022-12-20T17:59:15.689Z,4.11
2022-12-20T18:01:44.304Z,4.10
2022-12-20T18:04:13.625Z,4.11
2022-12-20T18:06:42.954Z,4.14
2022-12-20T18:09:14.802Z,4.14
2022-12-20T18:11:42.730Z,4.14
2022-12-20T18:14:10.721Z,4.16
2022-12-20T18:16:40.309Z,4.13
2022-12-20T18:19:08.807Z,4.12
2022-12-20T18:21:36.365Z,4.12
2022-12-20T18:24:04.109Z,4.15
2022-12-20T18:26:33.342Z,4.17
2022-12-20T18:29:03.402Z,4.19
2022-12-20T18:31:33.161Z,4.15
2022-12-20T18:34:02.879Z,4.16
2022-12-20T18:36:32.224Z,4.14
2022-12-20T18:39:00.792Z,4.16
2022-12-20T18:41:30.631Z,4.18
2022-12-20T18:43:59.662Z,4.18
2022-12-20T18:46:27.897Z,4.17
2022-12-20T18:48:57.368Z,4.12
2022-12-20T18:51:27.846Z,4.12
2022-12-20T18:53:56.809Z,4.21
2022-12-20T18:56:28.754Z,4.16
2022-12-20T18:58:57.509Z,4.19
2022-12-20T19:01:27.734Z,4.10
2022-12-20T19:03:56.122Z,4.05
2022-12-20T19:06:24.280Z,4.15
2022-12-20T19:08:53.210Z,4.16
2022-12-20T19:11:24.070Z,4.17
2022-12-20T19:13:52.298Z,4.24
2022-12-20T19:16:21.522Z,4.25
2022-12-20T19:18:49.631Z,4.25
2022-12-20T19:21:18.422Z,4.21
2022-12-20T19:23:48.451Z,4.24
2022-12-20T19:26:18.415Z,4.24
2022-12-20T19:28:46.951Z,4.21
2022-12-20T19:31:21.636Z,4.19
2022-12-20T19:33:50.339Z,4.20
2022-12-20T19:36:20.436Z,4.21
2022-12-20T19:38:50.502Z,4.22
2022-12-20T19:41:20.680Z,4.19
2022-12-20T19:43:49.161Z,4.21
2022-12-20T19:46:17.074Z,4.22
2022-12-20T19:48:44.728Z,4.18
2022-12-20T19:51:15.498Z,4.18
2022-12-20T19:53:44.607Z,4.20
2022-12-20T19:56:13.889Z,4.11
2022-12-20T19:58:43.078Z,4.12
2022-12-20T20:01:11.766Z,4.18
2022-12-20T20:03:39.984Z,4.19
2022-12-20T20:06:08.615Z,4.13
2022-12-20T20:08:36.553Z,4.17
2022-12-20T20:11:09.361Z,4.10
2022-12-20T20:13:38.191Z,4.19
2022-12-20T20:16:08.339Z,4.18
2022-12-20T20:18:37.926Z,4.21
2022-12-20T20:21:08.557Z,4.21
2022-12-20T20:23:37.542Z,4.18
2022-12-20T20:26:08.184Z,4.27
2022-12-20T20:28:43.749Z,4.34
2022-12-20T20:31:15.698Z,4.35
2022-12-20T20:33:43.933Z,4.36
2022-12-20T20:36:14.335Z,4.40
2022-12-20T20:38:46.004Z,4.30
2022-12-20T20:41:18.180Z,4.37
2022-12-20T20:43:47.174Z,4.42
2022-12-20T20:46:17.066Z,4.49
2022-12-20T20:48:48.304Z,4.45
2022-12-20T20:51:17.031Z,4.40
2022-12-20T20:53:44.645Z,4.39
2022-12-20T20:56:12.338Z,4.38
2022-12-20T20:58:40.353Z,4.34
2022-12-20T21:01:09.402Z,4.33
2022-12-20T21:03:40.060Z,4.27
2022-12-20T21:08:55.997Z,4.36
2022-12-20T21:11:24.417Z,4.42
2022-12-20T21:13:52.138Z,4.29
2022-12-20T21:16:22.220Z,4.29
2022-12-20T21:18:53.029Z,4.14
2022-12-20T21:21:21.258Z,4.10
2022-12-20T21:23:49.364Z,4.05
2022-12-20T21:26:18.250Z,3.98
2022-12-20T21:28:45.979Z,4.07
2022-12-20T21:31:14.712Z,4.13
2022-12-20T21:33:42.474Z,4.06
2022-12-20T21:36:13.793Z,4.24
2022-12-20T21:38:41.595Z,4.13
2022-12-20T21:41:11.736Z,4.11
2022-12-20T21:43:39.404Z,3.99
2022-12-20T21:46:11.053Z,4.01
2022-12-20T21:48:39.447Z,3.97
2022-12-20T21:51:09.997Z,4.06
2022-12-20T21:53:42.965Z,3.89
2022-12-20T21:56:10.599Z,3.97
2022-12-20T21:58:38.635Z,3.99
2022-12-20T22:01:07.859Z,4.05
2022-12-20T22:03:36.612Z,4.06
2022-12-20T22:06:05.123Z,4.09
2022-12-20T22:08:33.192Z,4.10
2022-12-20T22:11:04.015Z,4.15
2022-12-20T22:13:37.218Z,4.22
2022-12-20T22:16:08.703Z,4.33
2022-12-20T22:18:36.680Z,4.41
2022-12-20T22:21:04.383Z,4.46
2022-12-20T22:23:32.211Z,4.45
2022-12-20T22:26:03.871Z,4.48
2022-12-20T22:28:31.521Z,4.23
2022-12-20T22:30:59.143Z,4.48
2022-12-20T22:33:26.853Z,4.39
2022-12-20T22:35:54.481Z,4.36
2022-12-20T22:38:22.082Z,4.37
2022-12-20T22:40:49.727Z,4.22
2022-12-20T22:43:18.664Z,4.25
2022-12-20T22:45:57.247Z,4.14
2022-12-20T22:48:24.899Z,4.08
2022-12-20T22:50:59.311Z,4.11
2022-12-20T22:53:27.037Z,4.14
2022-12-20T22:55:54.843Z,4.14
2022-12-20T22:58:24.710Z,4.07
2022-12-20T23:00:52.314Z,4.18
2022-12-20T23:03:19.990Z,4.25
2022-12-20T23:05:55.056Z,4.34
2022-12-20T23:08:23.728Z,4.28
2022-12-20T23:11:08.912Z,4.33
2022-12-20T23:13:56.591Z,4.31
2022-12-20T23:16:24.820Z,4.36
2022-12-20T23:18:55.162Z,4.42
2022-12-20T23:21:40.456Z,4.42
2022-12-20T23:24:08.443Z,4.41
2022-12-20T23:26:36.298Z,4.57
2022-12-20T23:29:06.054Z,4.40
2022-12-20T23:31:34.233Z,4.48
2022-12-20T23:34:02.587Z,4.47
2022-12-20T23:36:30.331Z,4.56
2022-12-20T23:38:58.019Z,4.51
2022-12-20T23:41:25.601Z,4.45
2022-12-20T23:43:53.135Z,4.49
2022-12-20T23:46:22.673Z,4.49
2022-12-20T23:48:50.828Z,4.44
2022-12-20T23:51:18.983Z,4.41
2022-12-20T23:53:46.518Z,4.45
2022-12-20T23:56:15.877Z,4.49
2022-12-20T23:58:43.683Z,4.47
